sensor_id;sensor_type;location;lat;lon;timestamp;P1;durP1;ratioP1;P2;durP2;ratioP2
12163;SDS011;6145;50.192;10.064;2022-11-09T00:00:40;13.30;;;6.43;;
12163;SDS011;6145;50.192;10.064;2022-11-09T00:03:06;7.40;;;6.40;;
12163;SDS011;6145;50.192;10.064;2022-11-09T00:05:33;8.07;;;6.07;;
12163;SDS011;6145;50.192;10.064;2022-11-09T00:08:01;7.77;;;5.77;;
12163;SDS011;6145;50.192;10.064;2022-11-09T00:10:30;9.40;;;5.40;;
12163;SDS011;6145;50.192;10.064;2022-11-09T00:12:57;7.50;;;5.90;;
12163;SDS011;6145;50.192;10.064;2022-11-09T00:15:24;7.80;;;6.73;;
12163;SDS011;6145;50.192;10.064;2022-11-09T00:17:51;10.57;;;6.80;;
12163;SDS011;6145;50.192;10.064;2022-11-09T00:20:18;6.77;;;5.80;;
12163;SDS011;6145;50.192;10.064;2022-11-09T00:22:45;9.37;;;6.40;;
12163;SDS011;6145;50.192;10.064;2022-11-09T00:25:14;6.47;;;5.57;;
12163;SDS011;6145;50.192;10.064;2022-11-09T00:27:41;7.70;;;6.63;;
12163;SDS011;6145;50.192;10.064;2022-11-09T00:30:08;8.93;;;7.13;;
12163;SDS011;6145;50.192;10.064;2022-11-09T00:32:36;13.40;;;8.00;;
12163;SDS011;6145;50.192;10.064;2022-11-09T00:35:03;8.73;;;6.17;;
12163;SDS011;6145;50.192;10.064;2022-11-09T00:37:30;8.00;;;5.60;;
12163;SDS011;6145;50.192;10.064;2022-11-09T00:39:57;7.53;;;6.37;;
12163;SDS011;6145;50.192;10.064;2022-11-09T00:42:25;8.43;;;5.90;;
12163;SDS011;6145;50.192;10.064;2022-11-09T00:44:52;7.87;;;5.83;;
12163;SDS011;6145;50.192;10.064;2022-11-09T00:47:19;8.77;;;6.17;;
12163;SDS011;6145;50.192;10.064;2022-11-09T00:49:45;9.43;;;6.43;;
12163;SDS011;6145;50.192;10.064;2022-11-09T00:52:12;7.80;;;6.27;;
12163;SDS011;6145;50.192;10.064;2022-11-09T00:54:39;8.33;;;6.27;;
12163;SDS011;6145;50.192;10.064;2022-11-09T00:57:06;7.90;;;6.67;;
12163;SDS011;6145;50.192;10.064;2022-11-09T00:59:34;7.43;;;5.73;;
12163;SDS011;6145;50.192;10.064;2022-11-09T01:02:01;7.87;;;5.70;;
12163;SDS011;6145;50.192;10.064;2022-11-09T01:04:27;9.37;;;5.73;;
12163;SDS011;6145;50.192;10.064;2022-11-09T01:06:54;5.77;;;5.13;;
12163;SDS011;6145;50.192;10.064;2022-11-09T01:09:21;6.07;;;5.30;;
12163;SDS011;6145;50.192;10.064;2022-11-09T01:11:48;10.57;;;7.00;;
12163;SDS011;6145;50.192;10.064;2022-11-09T01:14:15;7.73;;;6.43;;
12163;SDS011;6145;50.192;10.064;2022-11-09T01:16:43;8.97;;;6.13;;
12163;SDS011;6145;50.192;10.064;2022-11-09T01:19:10;5.93;;;5.33;;
12163;SDS011;6145;50.192;10.064;2022-11-09T01:21:36;10.10;;;7.60;;
12163;SDS011;6145;50.192;10.064;2022-11-09T01:24:04;9.13;;;7.53;;
12163;SDS011;6145;50.192;10.064;2022-11-09T01:26:31;11.40;;;7.90;;
12163;SDS011;6145;50.192;10.064;2022-11-09T01:28:58;7.03;;;6.00;;
12163;SDS011;6145;50.192;10.064;2022-11-09T01:31:24;6.87;;;6.17;;
12163;SDS011;6145;50.192;10.064;2022-11-09T01:33:53;13.73;;;8.27;;
12163;SDS011;6145;50.192;10.064;2022-11-09T01:36:20;9.97;;;6.70;;
12163;SDS011;6145;50.192;10.064;2022-11-09T01:38:48;7.77;;;5.67;;
12163;SDS011;6145;50.192;10.064;2022-11-09T01:41:16;8.10;;;6.43;;
12163;SDS011;6145;50.192;10.064;2022-11-09T01:46:28;6.53;;;5.60;;
12163;SDS011;6145;50.192;10.064;2022-11-09T01:49:07;8.63;;;6.00;;
12163;SDS011;6145;50.192;10.064;2022-11-09T01:51:37;8.07;;;6.90;;
12163;SDS011;6145;50.192;10.064;2022-11-09T01:54:08;10.87;;;6.47;;
12163;SDS011;6145;50.192;10.064;2022-11-09T01:56:37;16.23;;;7.60;;
12163;SDS011;6145;50.192;10.064;2022-11-09T01:59:07;11.37;;;7.47;;
12163;SDS011;6145;50.192;10.064;2022-11-09T02:01:36;9.00;;;7.57;;
12163;SDS011;6145;50.192;10.064;2022-11-09T02:04:06;10.87;;;9.23;;
12163;SDS011;6145;50.192;10.064;2022-11-09T02:06:35;10.83;;;7.10;;
12163;SDS011;6145;50.192;10.064;2022-11-09T02:09:04;8.87;;;6.90;;
12163;SDS011;6145;50.192;10.064;2022-11-09T02:11:36;10.10;;;7.00;;
12163;SDS011;6145;50.192;10.064;2022-11-09T02:14:03;10.83;;;8.40;;
12163;SDS011;6145;50.192;10.064;2022-11-09T02:16:32;9.67;;;7.90;;
12163;SDS011;6145;50.192;10.064;2022-11-09T02:18:59;9.67;;;7.60;;
12163;SDS011;6145;50.192;10.064;2022-11-09T02:21:28;9.50;;;8.50;;
12163;SDS011;6145;50.192;10.064;2022-11-09T02:23:56;10.70;;;7.27;;
12163;SDS011;6145;50.192;10.064;2022-11-09T02:26:23;9.10;;;7.50;;
12163;SDS011;6145;50.192;10.064;2022-11-09T02:28:55;10.47;;;6.37;;
12163;SDS011;6145;50.192;10.064;2022-11-09T02:31:24;8.30;;;6.53;;
12163;SDS011;6145;50.192;10.064;2022-11-09T02:33:59;8.90;;;5.90;;
12163;SDS011;6145;50.192;10.064;2022-11-09T02:36:31;10.70;;;6.97;;
12163;SDS011;6145;50.192;10.064;2022-11-09T02:38:58;8.30;;;6.37;;
12163;SDS011;6145;50.192;10.064;2022-11-09T02:41:25;6.80;;;5.60;;
12163;SDS011;6145;50.192;10.064;2022-11-09T02:43:52;6.47;;;5.33;;
12163;SDS011;6145;50.192;10.064;2022-11-09T02:46:21;5.50;;;5.00;;
12163;SDS011;6145;50.192;10.064;2022-11-09T02:48:49;6.67;;;5.63;;
12163;SDS011;6145;50.192;10.064;2022-11-09T02:51:16;5.80;;;5.13;;
12163;SDS011;6145;50.192;10.064;2022-11-09T02:53:44;7.50;;;6.00;;
12163;SDS011;6145;50.192;10.064;2022-11-09T02:56:11;6.00;;;5.47;;
12163;SDS011;6145;50.192;10.064;2022-11-09T02:58:38;7.43;;;5.43;;
12163;SDS011;6145;50.192;10.064;2022-11-09T03:01:05;9.97;;;6.50;;
12163;SDS011;6145;50.192;10.064;2022-11-09T03:03:32;5.60;;;5.10;;
12163;SDS011;6145;50.192;10.064;2022-11-09T03:05:59;6.77;;;5.37;;
12163;SDS011;6145;50.192;10.064;2022-11-09T03:08:26;5.27;;;4.73;;
12163;SDS011;6145;50.192;10.064;2022-11-09T03:10:55;7.40;;;6.40;;
12163;SDS011;6145;50.192;10.064;2022-11-09T03:13:24;6.17;;;5.10;;
12163;SDS011;6145;50.192;10.064;2022-11-09T03:15:51;6.37;;;4.53;;
12163;SDS011;6145;50.192;10.064;2022-11-09T03:18:17;6.87;;;5.97;;
12163;SDS011;6145;50.192;10.064;2022-11-09T03:20:44;10.10;;;7.00;;
12163;SDS011;6145;50.192;10.064;2022-11-09T03:23:11;9.77;;;7.20;;
12163;SDS011;6145;50.192;10.064;2022-11-09T03:25:38;9.83;;;6.47;;
12163;SDS011;6145;50.192;10.064;2022-11-09T03:28:06;8.70;;;7.10;;
12163;SDS011;6145;50.192;10.064;2022-11-09T03:30:33;12.50;;;7.70;;
12163;SDS011;6145;50.192;10.064;2022-11-09T03:33:01;5.67;;;5.17;;
12163;SDS011;6145;50.192;10.064;2022-11-09T03:35:29;8.97;;;6.47;;
12163;SDS011;6145;50.192;10.064;2022-11-09T03:37:56;9.10;;;7.07;;
12163;SDS011;6145;50.192;10.064;2022-11-09T03:40:23;10.07;;;7.30;;
12163;SDS011;6145;50.192;10.064;2022-11-09T03:42:50;8.33;;;7.33;;
12163;SDS011;6145;50.192;10.064;2022-11-09T03:45:18;8.37;;;7.13;;
12163;SDS011;6145;50.192;10.064;2022-11-09T03:47:45;7.33;;;6.60;;
12163;SDS011;6145;50.192;10.064;2022-11-09T03:50:13;7.93;;;7.10;;
12163;SDS011;6145;50.192;10.064;2022-11-09T03:52:42;8.43;;;6.80;;
12163;SDS011;6145;50.192;10.064;2022-11-09T03:55:10;7.17;;;6.10;;
12163;SDS011;6145;50.192;10.064;2022-11-09T03:57:38;6.10;;;5.50;;
12163;SDS011;6145;50.192;10.064;2022-11-09T04:00:05;6.60;;;5.23;;
12163;SDS011;6145;50.192;10.064;2022-11-09T04:02:35;6.93;;;6.23;;
12163;SDS011;6145;50.192;10.064;2022-11-09T04:05:02;8.03;;;6.73;;
12163;SDS011;6145;50.192;10.064;2022-11-09T04:07:28;9.97;;;6.77;;
12163;SDS011;6145;50.192;10.064;2022-11-09T04:09:55;11.87;;;7.70;;
12163;SDS011;6145;50.192;10.064;2022-11-09T04:12:23;11.10;;;7.73;;
12163;SDS011;6145;50.192;10.064;2022-11-09T04:14:49;7.80;;;6.53;;
12163;SDS011;6145;50.192;10.064;2022-11-09T04:17:16;10.30;;;7.40;;
12163;SDS011;6145;50.192;10.064;2022-11-09T04:19:44;6.83;;;5.00;;
12163;SDS011;6145;50.192;10.064;2022-11-09T04:22:11;6.77;;;5.60;;
12163;SDS011;6145;50.192;10.064;2022-11-09T04:24:38;5.87;;;5.30;;
12163;SDS011;6145;50.192;10.064;2022-11-09T04:27:05;6.63;;;5.70;;
12163;SDS011;6145;50.192;10.064;2022-11-09T04:29:32;8.93;;;5.63;;
12163;SDS011;6145;50.192;10.064;2022-11-09T04:31:58;9.67;;;7.20;;
12163;SDS011;6145;50.192;10.064;2022-11-09T04:34:25;10.20;;;7.40;;
12163;SDS011;6145;50.192;10.064;2022-11-09T04:36:53;12.50;;;7.83;;
12163;SDS011;6145;50.192;10.064;2022-11-09T04:39:20;7.63;;;6.13;;
12163;SDS011;6145;50.192;10.064;2022-11-09T04:41:47;6.13;;;5.27;;
12163;SDS011;6145;50.192;10.064;2022-11-09T04:44:13;6.50;;;5.47;;
12163;SDS011;6145;50.192;10.064;2022-11-09T04:46:40;5.30;;;4.80;;
12163;SDS011;6145;50.192;10.064;2022-11-09T04:49:07;8.40;;;5.90;;
12163;SDS011;6145;50.192;10.064;2022-11-09T04:51:34;6.37;;;5.20;;
12163;SDS011;6145;50.192;10.064;2022-11-09T04:54:02;8.00;;;6.80;;
12163;SDS011;6145;50.192;10.064;2022-11-09T04:56:29;6.93;;;6.23;;
12163;SDS011;6145;50.192;10.064;2022-11-09T04:58:56;9.40;;;6.67;;
12163;SDS011;6145;50.192;10.064;2022-11-09T05:01:23;7.93;;;6.90;;
12163;SDS011;6145;50.192;10.064;2022-11-09T05:03:50;6.53;;;5.63;;
12163;SDS011;6145;50.192;10.064;2022-11-09T05:06:16;10.87;;;7.37;;
12163;SDS011;6145;50.192;10.064;2022-11-09T05:09:00;10.13;;;6.90;;
12163;SDS011;6145;50.192;10.064;2022-11-09T05:11:30;7.10;;;6.17;;
12163;SDS011;6145;50.192;10.064;2022-11-09T05:13:57;9.07;;;5.97;;
12163;SDS011;6145;50.192;10.064;2022-11-09T05:16:24;11.70;;;7.43;;
12163;SDS011;6145;50.192;10.064;2022-11-09T05:18:51;8.97;;;6.47;;
12163;SDS011;6145;50.192;10.064;2022-11-09T05:21:18;11.87;;;7.30;;
12163;SDS011;6145;50.192;10.064;2022-11-09T05:23:45;10.03;;;7.70;;
12163;SDS011;6145;50.192;10.064;2022-11-09T05:26:23;11.00;;;7.67;;
12163;SDS011;6145;50.192;10.064;2022-11-09T05:28:56;10.53;;;8.13;;
12163;SDS011;6145;50.192;10.064;2022-11-09T05:31:24;8.50;;;7.37;;
12163;SDS011;6145;50.192;10.064;2022-11-09T05:33:51;9.47;;;7.57;;
12163;SDS011;6145;50.192;10.064;2022-11-09T05:36:19;8.43;;;7.53;;
12163;SDS011;6145;50.192;10.064;2022-11-09T05:38:46;20.27;;;15.57;;
12163;SDS011;6145;50.192;10.064;2022-11-09T05:41:14;27.57;;;21.83;;
12163;SDS011;6145;50.192;10.064;2022-11-09T05:43:41;7.57;;;6.77;;
12163;SDS011;6145;50.192;10.064;2022-11-09T05:46:11;11.90;;;8.20;;
12163;SDS011;6145;50.192;10.064;2022-11-09T05:48:38;8.87;;;7.97;;
12163;SDS011;6145;50.192;10.064;2022-11-09T05:51:06;13.17;;;9.97;;
12163;SDS011;6145;50.192;10.064;2022-11-09T05:53:34;9.97;;;8.03;;
12163;SDS011;6145;50.192;10.064;2022-11-09T05:56:02;8.70;;;7.00;;
12163;SDS011;6145;50.192;10.064;2022-11-09T05:58:29;8.00;;;7.20;;
12163;SDS011;6145;50.192;10.064;2022-11-09T06:01:00;10.23;;;8.50;;
12163;SDS011;6145;50.192;10.064;2022-11-09T06:03:29;10.50;;;8.37;;
12163;SDS011;6145;50.192;10.064;2022-11-09T06:05:59;13.60;;;8.40;;
12163;SDS011;6145;50.192;10.064;2022-11-09T06:08:26;9.60;;;8.47;;
12163;SDS011;6145;50.192;10.064;2022-11-09T06:10:56;7.37;;;6.67;;
12163;SDS011;6145;50.192;10.064;2022-11-09T06:13:24;10.73;;;8.40;;
12163;SDS011;6145;50.192;10.064;2022-11-09T06:15:52;10.23;;;8.20;;
12163;SDS011;6145;50.192;10.064;2022-11-09T06:18:19;10.97;;;8.47;;
12163;SDS011;6145;50.192;10.064;2022-11-09T06:20:47;9.50;;;8.50;;
12163;SDS011;6145;50.192;10.064;2022-11-09T06:23:16;8.60;;;7.70;;
12163;SDS011;6145;50.192;10.064;2022-11-09T06:25:43;10.53;;;7.00;;
12163;SDS011;6145;50.192;10.064;2022-11-09T06:28:10;7.50;;;6.80;;
12163;SDS011;6145;50.192;10.064;2022-11-09T06:30:37;6.50;;;5.60;;
12163;SDS011;6145;50.192;10.064;2022-11-09T06:33:03;8.67;;;7.77;;
12163;SDS011;6145;50.192;10.064;2022-11-09T06:35:30;6.93;;;6.23;;
12163;SDS011;6145;50.192;10.064;2022-11-09T06:37:59;8.37;;;7.23;;
12163;SDS011;6145;50.192;10.064;2022-11-09T06:40:26;6.07;;;5.47;;
12163;SDS011;6145;50.192;10.064;2022-11-09T06:42:55;7.43;;;5.67;;
12163;SDS011;6145;50.192;10.064;2022-11-09T06:45:23;6.70;;;5.37;;
12163;SDS011;6145;50.192;10.064;2022-11-09T06:47:53;6.63;;;5.80;;
12163;SDS011;6145;50.192;10.064;2022-11-09T06:50:20;11.10;;;7.90;;
12163;SDS011;6145;50.192;10.064;2022-11-09T06:52:47;6.73;;;5.27;;
12163;SDS011;6145;50.192;10.064;2022-11-09T06:55:15;6.17;;;5.47;;
12163;SDS011;6145;50.192;10.064;2022-11-09T06:57:42;10.23;;;8.43;;
12163;SDS011;6145;50.192;10.064;2022-11-09T07:00:09;9.63;;;8.73;;
12163;SDS011;6145;50.192;10.064;2022-11-09T07:02:37;10.87;;;8.67;;
12163;SDS011;6145;50.192;10.064;2022-11-09T07:05:04;7.93;;;6.90;;
12163;SDS011;6145;50.192;10.064;2022-11-09T07:07:31;8.43;;;7.53;;
12163;SDS011;6145;50.192;10.064;2022-11-09T07:09:58;16.63;;;10.57;;
12163;SDS011;6145;50.192;10.064;2022-11-09T07:12:26;16.07;;;10.90;;
12163;SDS011;6145;50.192;10.064;2022-11-09T07:14:53;15.07;;;12.93;;
12163;SDS011;6145;50.192;10.064;2022-11-09T07:17:20;13.70;;;11.90;;
12163;SDS011;6145;50.192;10.064;2022-11-09T07:19:47;16.13;;;13.20;;
12163;SDS011;6145;50.192;10.064;2022-11-09T07:22:13;16.20;;;12.17;;
12163;SDS011;6145;50.192;10.064;2022-11-09T07:24:40;8.83;;;7.87;;
12163;SDS011;6145;50.192;10.064;2022-11-09T07:27:07;11.10;;;8.77;;
12163;SDS011;6145;50.192;10.064;2022-11-09T07:29:35;17.00;;;12.47;;
12163;SDS011;6145;50.192;10.064;2022-11-09T07:32:02;15.70;;;12.37;;
12163;SDS011;6145;50.192;10.064;2022-11-09T07:34:29;12.30;;;11.00;;
12163;SDS011;6145;50.192;10.064;2022-11-09T07:36:56;18.10;;;13.70;;
12163;SDS011;6145;50.192;10.064;2022-11-09T07:39:23;17.60;;;13.97;;
12163;SDS011;6145;50.192;10.064;2022-11-09T07:41:49;13.43;;;10.13;;
12163;SDS011;6145;50.192;10.064;2022-11-09T07:44:16;21.90;;;14.70;;
12163;SDS011;6145;50.192;10.064;2022-11-09T07:46:44;20.60;;;15.23;;
12163;SDS011;6145;50.192;10.064;2022-11-09T07:49:12;19.67;;;14.67;;
12163;SDS011;6145;50.192;10.064;2022-11-09T07:51:39;19.73;;;15.43;;
12163;SDS011;6145;50.192;10.064;2022-11-09T07:54:07;20.33;;;14.70;;
12163;SDS011;6145;50.192;10.064;2022-11-09T07:56:34;21.17;;;15.43;;
12163;SDS011;6145;50.192;10.064;2022-11-09T07:59:02;18.20;;;12.83;;
12163;SDS011;6145;50.192;10.064;2022-11-09T08:01:29;21.30;;;15.43;;
12163;SDS011;6145;50.192;10.064;2022-11-09T08:03:57;20.43;;;15.27;;
12163;SDS011;6145;50.192;10.064;2022-11-09T08:06:25;23.73;;;16.77;;
12163;SDS011;6145;50.192;10.064;2022-11-09T08:08:53;22.47;;;18.00;;
12163;SDS011;6145;50.192;10.064;2022-11-09T08:11:20;16.53;;;14.17;;
12163;SDS011;6145;50.192;10.064;2022-11-09T08:13:47;23.63;;;16.43;;
12163;SDS011;6145;50.192;10.064;2022-11-09T08:16:14;22.27;;;17.30;;
12163;SDS011;6145;50.192;10.064;2022-11-09T08:18:42;21.20;;;16.27;;
12163;SDS011;6145;50.192;10.064;2022-11-09T08:21:10;22.60;;;16.50;;
12163;SDS011;6145;50.192;10.064;2022-11-09T08:23:37;23.80;;;17.43;;
12163;SDS011;6145;50.192;10.064;2022-11-09T08:26:05;23.83;;;16.97;;
12163;SDS011;6145;50.192;10.064;2022-11-09T08:28:32;22.33;;;16.40;;
12163;SDS011;6145;50.192;10.064;2022-11-09T08:31:00;22.20;;;17.73;;
12163;SDS011;6145;50.192;10.064;2022-11-09T08:33:29;20.33;;;16.87;;
12163;SDS011;6145;50.192;10.064;2022-11-09T08:35:58;24.23;;;17.10;;
12163;SDS011;6145;50.192;10.064;2022-11-09T08:38:26;20.87;;;17.37;;
12163;SDS011;6145;50.192;10.064;2022-11-09T08:40:56;23.47;;;17.77;;
12163;SDS011;6145;50.192;10.064;2022-11-09T08:43:23;25.10;;;18.80;;
12163;SDS011;6145;50.192;10.064;2022-11-09T08:45:50;22.60;;;18.00;;
12163;SDS011;6145;50.192;10.064;2022-11-09T08:48:17;24.33;;;17.87;;
12163;SDS011;6145;50.192;10.064;2022-11-09T08:50:44;22.20;;;17.10;;
12163;SDS011;6145;50.192;10.064;2022-11-09T08:53:11;21.43;;;16.53;;
12163;SDS011;6145;50.192;10.064;2022-11-09T08:55:39;24.63;;;18.17;;
12163;SDS011;6145;50.192;10.064;2022-11-09T08:58:06;21.47;;;17.37;;
12163;SDS011;6145;50.192;10.064;2022-11-09T09:00:33;24.03;;;17.63;;
12163;SDS011;6145;50.192;10.064;2022-11-09T09:03:01;20.20;;;15.90;;
12163;SDS011;6145;50.192;10.064;2022-11-09T09:05:29;18.57;;;15.27;;
12163;SDS011;6145;50.192;10.064;2022-11-09T09:07:57;19.43;;;15.30;;
12163;SDS011;6145;50.192;10.064;2022-11-09T09:10:24;22.13;;;15.83;;
12163;SDS011;6145;50.192;10.064;2022-11-09T09:12:52;19.57;;;15.10;;
12163;SDS011;6145;50.192;10.064;2022-11-09T09:15:19;18.00;;;15.50;;
12163;SDS011;6145;50.192;10.064;2022-11-09T09:17:47;19.27;;;14.83;;
12163;SDS011;6145;50.192;10.064;2022-11-09T09:20:14;20.10;;;15.70;;
12163;SDS011;6145;50.192;10.064;2022-11-09T09:22:42;19.17;;;14.50;;
12163;SDS011;6145;50.192;10.064;2022-11-09T09:25:09;17.53;;;13.00;;
12163;SDS011;6145;50.192;10.064;2022-11-09T09:27:35;13.90;;;12.07;;
12163;SDS011;6145;50.192;10.064;2022-11-09T09:30:04;12.90;;;9.23;;
12163;SDS011;6145;50.192;10.064;2022-11-09T09:32:32;10.13;;;8.90;;
12163;SDS011;6145;50.192;10.064;2022-11-09T09:34:58;16.80;;;12.40;;
12163;SDS011;6145;50.192;10.064;2022-11-09T09:37:25;38.63;;;31.07;;
12163;SDS011;6145;50.192;10.064;2022-11-09T09:39:52;11.30;;;8.57;;
12163;SDS011;6145;50.192;10.064;2022-11-09T09:42:21;9.93;;;7.57;;
12163;SDS011;6145;50.192;10.064;2022-11-09T09:44:53;7.17;;;6.27;;
12163;SDS011;6145;50.192;10.064;2022-11-09T09:47:28;8.13;;;6.80;;
12163;SDS011;6145;50.192;10.064;2022-11-09T09:50:08;8.43;;;6.73;;
12163;SDS011;6145;50.192;10.064;2022-11-09T09:52:39;7.03;;;6.03;;
12163;SDS011;6145;50.192;10.064;2022-11-09T09:55:13;7.70;;;5.93;;
12163;SDS011;6145;50.192;10.064;2022-11-09T09:57:45;6.83;;;6.13;;
12163;SDS011;6145;50.192;10.064;2022-11-09T10:00:18;4.70;;;4.30;;
12163;SDS011;6145;50.192;10.064;2022-11-09T10:02:49;4.57;;;4.17;;
12163;SDS011;6145;50.192;10.064;2022-11-09T10:05:17;5.37;;;4.03;;
12163;SDS011;6145;50.192;10.064;2022-11-09T10:07:47;4.50;;;4.10;;
12163;SDS011;6145;50.192;10.064;2022-11-09T10:10:21;10.63;;;4.90;;
12163;SDS011;6145;50.192;10.064;2022-11-09T10:13:08;6.30;;;4.83;;
12163;SDS011;6145;50.192;10.064;2022-11-09T10:15:46;4.50;;;3.80;;
12163;SDS011;6145;50.192;10.064;2022-11-09T10:18:24;4.47;;;4.07;;
12163;SDS011;6145;50.192;10.064;2022-11-09T10:21:12;5.83;;;4.23;;
12163;SDS011;6145;50.192;10.064;2022-11-09T10:23:50;3.67;;;3.37;;
12163;SDS011;6145;50.192;10.064;2022-11-09T10:26:34;3.90;;;3.60;;
12163;SDS011;6145;50.192;10.064;2022-11-09T10:29:14;4.20;;;3.80;;
12163;SDS011;6145;50.192;10.064;2022-11-09T10:31:46;4.57;;;4.13;;
12163;SDS011;6145;50.192;10.064;2022-11-09T10:34:17;4.63;;;3.87;;
12163;SDS011;6145;50.192;10.064;2022-11-09T10:36:55;5.70;;;3.60;;
12163;SDS011;6145;50.192;10.064;2022-11-09T10:39:27;3.33;;;3.03;;
12163;SDS011;6145;50.192;10.064;2022-11-09T10:42:04;3.87;;;3.40;;
12163;SDS011;6145;50.192;10.064;2022-11-09T10:44:31;1.83;;;1.73;;
12163;SDS011;6145;50.192;10.064;2022-11-09T10:47:03;2.80;;;2.53;;
12163;SDS011;6145;50.192;10.064;2022-11-09T10:49:33;2.97;;;1.90;;
12163;SDS011;6145;50.192;10.064;2022-11-09T10:52:00;3.40;;;2.63;;
12163;SDS011;6145;50.192;10.064;2022-11-09T10:54:27;7.90;;;2.93;;
12163;SDS011;6145;50.192;10.064;2022-11-09T10:56:59;4.20;;;2.37;;
12163;SDS011;6145;50.192;10.064;2022-11-09T10:59:33;1.70;;;1.60;;
12163;SDS011;6145;50.192;10.064;2022-11-09T11:02:09;2.00;;;1.80;;
12163;SDS011;6145;50.192;10.064;2022-11-09T11:05:20;2.30;;;1.73;;
12163;SDS011;6145;50.192;10.064;2022-11-09T11:08:32;1.70;;;1.60;;
12163;SDS011;6145;50.192;10.064;2022-11-09T11:11:14;3.07;;;2.20;;
12163;SDS011;6145;50.192;10.064;2022-11-09T11:13:45;2.50;;;1.70;;
12163;SDS011;6145;50.192;10.064;2022-11-09T11:16:23;2.20;;;1.60;;
12163;SDS011;6145;50.192;10.064;2022-11-09T11:18:52;3.47;;;2.03;;
12163;SDS011;6145;50.192;10.064;2022-11-09T11:21:21;2.10;;;1.53;;
12163;SDS011;6145;50.192;10.064;2022-11-09T11:26:49;2.37;;;2.03;;
12163;SDS011;6145;50.192;10.064;2022-11-09T11:32:10;2.37;;;1.70;;
12163;SDS011;6145;50.192;10.064;2022-11-09T11:34:40;2.37;;;1.70;;
12163;SDS011;6145;50.192;10.064;2022-11-09T11:37:15;4.73;;;2.53;;
12163;SDS011;6145;50.192;10.064;2022-11-09T11:39:58;2.27;;;1.67;;
12163;SDS011;6145;50.192;10.064;2022-11-09T11:45:26;2.60;;;1.70;;
12163;SDS011;6145;50.192;10.064;2022-11-09T11:48:03;1.80;;;1.70;;
12163;SDS011;6145;50.192;10.064;2022-11-09T11:50:43;1.60;;;1.50;;
12163;SDS011;6145;50.192;10.064;2022-11-09T11:53:18;1.80;;;1.70;;
12163;SDS011;6145;50.192;10.064;2022-11-09T11:56:06;1.83;;;1.73;;
12163;SDS011;6145;50.192;10.064;2022-11-09T11:58:50;1.90;;;1.70;;
12163;SDS011;6145;50.192;10.064;2022-11-09T12:01:34;2.43;;;1.70;;
12163;SDS011;6145;50.192;10.064;2022-11-09T12:04:20;2.10;;;1.73;;
12163;SDS011;6145;50.192;10.064;2022-11-09T12:07:10;1.97;;;1.60;;
12163;SDS011;6145;50.192;10.064;2022-11-09T12:09:57;1.50;;;1.40;;
12163;SDS011;6145;50.192;10.064;2022-11-09T12:12:38;1.90;;;1.50;;
12163;SDS011;6145;50.192;10.064;2022-11-09T12:15:28;1.97;;;1.30;;
12163;SDS011;6145;50.192;10.064;2022-11-09T12:18:04;3.23;;;1.40;;
12163;SDS011;6145;50.192;10.064;2022-11-09T12:20:40;2.43;;;1.40;;
12163;SDS011;6145;50.192;10.064;2022-11-09T12:23:20;2.23;;;1.50;;
12163;SDS011;6145;50.192;10.064;2022-11-09T12:25:59;3.00;;;1.53;;
12163;SDS011;6145;50.192;10.064;2022-11-09T12:28:46;1.70;;;1.50;;
12163;SDS011;6145;50.192;10.064;2022-11-09T12:31:25;1.77;;;1.30;;
12163;SDS011;6145;50.192;10.064;2022-11-09T12:34:01;2.97;;;1.30;;
12163;SDS011;6145;50.192;10.064;2022-11-09T12:36:33;6.50;;;2.17;;
12163;SDS011;6145;50.192;10.064;2022-11-09T12:39:04;1.50;;;1.40;;
12163;SDS011;6145;50.192;10.064;2022-11-09T12:41:37;1.90;;;1.40;;
12163;SDS011;6145;50.192;10.064;2022-11-09T12:44:08;1.60;;;1.50;;
12163;SDS011;6145;50.192;10.064;2022-11-09T12:46:41;4.27;;;2.00;;
12163;SDS011;6145;50.192;10.064;2022-11-09T12:49:14;1.77;;;1.67;;
12163;SDS011;6145;50.192;10.064;2022-11-09T12:51:54;2.90;;;1.50;;
12163;SDS011;6145;50.192;10.064;2022-11-09T12:54:20;2.17;;;1.50;;
12163;SDS011;6145;50.192;10.064;2022-11-09T12:56:50;2.43;;;1.57;;
12163;SDS011;6145;50.192;10.064;2022-11-09T12:59:32;3.70;;;1.50;;
12163;SDS011;6145;50.192;10.064;2022-11-09T13:02:18;2.43;;;1.20;;
12163;SDS011;6145;50.192;10.064;2022-11-09T13:05:02;1.97;;;1.50;;
12163;SDS011;6145;50.192;10.064;2022-11-09T13:07:45;8.20;;;2.33;;
12163;SDS011;6145;50.192;10.064;2022-11-09T13:10:21;4.87;;;2.03;;
12163;SDS011;6145;50.192;10.064;2022-11-09T13:13:02;2.73;;;1.77;;
12163;SDS011;6145;50.192;10.064;2022-11-09T13:18:45;1.47;;;1.37;;
12163;SDS011;6145;50.192;10.064;2022-11-09T13:21:35;4.83;;;1.83;;
12163;SDS011;6145;50.192;10.064;2022-11-09T13:33:21;4.00;;;2.37;;
12163;SDS011;6145;50.192;10.064;2022-11-09T13:35:56;1.60;;;1.50;;
12163;SDS011;6145;50.192;10.064;2022-11-09T13:38:42;2.53;;;1.40;;
12163;SDS011;6145;50.192;10.064;2022-11-09T13:44:12;2.33;;;1.70;;
12163;SDS011;6145;50.192;10.064;2022-11-09T13:46:42;3.83;;;1.97;;
12163;SDS011;6145;50.192;10.064;2022-11-09T13:55:20;2.63;;;1.77;;
12163;SDS011;6145;50.192;10.064;2022-11-09T13:57:50;2.63;;;2.03;;
12163;SDS011;6145;50.192;10.064;2022-11-09T14:00:18;3.33;;;1.67;;
12163;SDS011;6145;50.192;10.064;2022-11-09T14:02:51;4.27;;;2.27;;
12163;SDS011;6145;50.192;10.064;2022-11-09T14:05:27;2.77;;;1.60;;
12163;SDS011;6145;50.192;10.064;2022-11-09T14:07:57;1.63;;;1.53;;
12163;SDS011;6145;50.192;10.064;2022-11-09T14:10:35;2.07;;;1.60;;
12163;SDS011;6145;50.192;10.064;2022-11-09T14:13:33;9.27;;;2.50;;
12163;SDS011;6145;50.192;10.064;2022-11-09T14:16:12;4.30;;;1.90;;
12163;SDS011;6145;50.192;10.064;2022-11-09T14:18:52;3.33;;;1.83;;
12163;SDS011;6145;50.192;10.064;2022-11-09T14:21:36;3.10;;;1.87;;
12163;SDS011;6145;50.192;10.064;2022-11-09T14:24:11;2.63;;;1.43;;
12163;SDS011;6145;50.192;10.064;2022-11-09T14:29:26;2.70;;;1.80;;
12163;SDS011;6145;50.192;10.064;2022-11-09T14:31:57;4.73;;;2.10;;
12163;SDS011;6145;50.192;10.064;2022-11-09T14:34:24;5.10;;;1.87;;
12163;SDS011;6145;50.192;10.064;2022-11-09T14:36:53;8.53;;;2.63;;
12163;SDS011;6145;50.192;10.064;2022-11-09T14:39:24;2.33;;;1.60;;
12163;SDS011;6145;50.192;10.064;2022-11-09T14:41:53;3.13;;;1.67;;
12163;SDS011;6145;50.192;10.064;2022-11-09T14:44:23;2.80;;;1.87;;
12163;SDS011;6145;50.192;10.064;2022-11-09T14:46:52;2.93;;;1.70;;
12163;SDS011;6145;50.192;10.064;2022-11-09T14:49:20;3.67;;;1.73;;
12163;SDS011;6145;50.192;10.064;2022-11-09T14:51:47;2.17;;;1.57;;
12163;SDS011;6145;50.192;10.064;2022-11-09T14:54:17;1.80;;;1.40;;
12163;SDS011;6145;50.192;10.064;2022-11-09T14:56:52;3.90;;;2.10;;
12163;SDS011;6145;50.192;10.064;2022-11-09T14:59:25;2.77;;;1.50;;
12163;SDS011;6145;50.192;10.064;2022-11-09T15:01:55;2.83;;;1.60;;
12163;SDS011;6145;50.192;10.064;2022-11-09T15:04:27;1.60;;;1.50;;
12163;SDS011;6145;50.192;10.064;2022-11-09T15:06:55;3.17;;;2.00;;
12163;SDS011;6145;50.192;10.064;2022-11-09T15:09:30;4.67;;;4.03;;
12163;SDS011;6145;50.192;10.064;2022-11-09T15:11:58;3.03;;;2.57;;
12163;SDS011;6145;50.192;10.064;2022-11-09T15:14:27;2.30;;;2.07;;
12163;SDS011;6145;50.192;10.064;2022-11-09T15:16:56;4.73;;;2.13;;
12163;SDS011;6145;50.192;10.064;2022-11-09T15:19:27;4.57;;;2.20;;
12163;SDS011;6145;50.192;10.064;2022-11-09T15:21:55;4.13;;;2.23;;
12163;SDS011;6145;50.192;10.064;2022-11-09T15:24:23;3.43;;;2.00;;
12163;SDS011;6145;50.192;10.064;2022-11-09T15:26:53;6.87;;;2.10;;
12163;SDS011;6145;50.192;10.064;2022-11-09T15:29:25;3.33;;;2.23;;
12163;SDS011;6145;50.192;10.064;2022-11-09T15:32:00;2.53;;;2.13;;
12163;SDS011;6145;50.192;10.064;2022-11-09T15:34:37;4.50;;;2.17;;